sensor_id;sensor_type;location;lat;lon;timestamp;pressure;altitude;pressure_sealevel;temperature;humidity
61710;BME280;47633;51.494;5.386;2023-04-08T00:00:48;102159.13;;;19.02;42.13
61710;BME280;47633;51.494;5.386;2023-04-08T00:03:14;102156.47;;;19.02;42.38
61710;BME280;47633;51.494;5.386;2023-04-08T00:05:40;102160.19;;;19.00;42.35
61710;BME280;47633;51.494;5.386;2023-04-08T00:08:05;102157.66;;;18.98;42.22
61710;BME280;47633;51.494;5.386;2023-04-08T00:10:31;102158.59;;;18.97;42.33
61710;BME280;47633;51.494;5.386;2023-04-08T00:12:56;102160.28;;;18.98;42.15
61710;BME280;47633;51.494;5.386;2023-04-08T00:15:21;102151.63;;;18.96;42.09
61710;BME280;47633;51.494;5.386;2023-04-08T00:17:47;102149.91;;;18.95;42.32
61710;BME280;47633;51.494;5.386;2023-04-08T00:20:12;102156.03;;;18.96;42.17
61710;BME280;47633;51.494;5.386;2023-04-08T00:22:37;102151.72;;;18.95;42.20
61710;BME280;47633;51.494;5.386;2023-04-08T00:25:03;102150.09;;;18.92;42.26
61710;BME280;47633;51.494;5.386;2023-04-08T00:27:33;102153.50;;;18.94;42.23
61710;BME280;47633;51.494;5.386;2023-04-08T00:29:59;102150.94;;;18.93;42.17
61710;BME280;47633;51.494;5.386;2023-04-08T00:32:26;102162.28;;;18.95;42.16
61710;BME280;47633;51.494;5.386;2023-04-08T00:34:51;102157.19;;;18.92;42.13
61710;BME280;47633;51.494;5.386;2023-04-08T00:37:16;102151.13;;;18.90;42.27
61710;BME280;47633;51.494;5.386;2023-04-08T00:39:42;102157.19;;;18.92;42.32
61710;BME280;47633;51.494;5.386;2023-04-08T00:42:07;102156.31;;;18.91;42.12
61710;BME280;47633;51.494;5.386;2023-04-08T00:44:32;102159.06;;;18.90;42.34
61710;BME280;47633;51.494;5.386;2023-04-08T00:46:58;102153.88;;;18.88;42.26
61710;BME280;47633;51.494;5.386;2023-04-08T00:49:23;102162.69;;;18.89;42.18
61710;BME280;47633;51.494;5.386;2023-04-08T00:51:48;102167.97;;;18.89;42.06
61710;BME280;47633;51.494;5.386;2023-04-08T00:54:14;102167.09;;;18.88;42.06
61710;BME280;47633;51.494;5.386;2023-04-08T00:56:39;102165.50;;;18.85;42.09
61710;BME280;47633;51.494;5.386;2023-04-08T00:59:06;102169.81;;;18.87;42.20
61710;BME280;47633;51.494;5.386;2023-04-08T01:01:54;102173.44;;;18.85;42.27
61710;BME280;47633;51.494;5.386;2023-04-08T01:07:24;102169.09;;;18.84;42.16
61710;BME280;47633;51.494;5.386;2023-04-08T01:09:53;102166.59;;;18.81;42.24
61710;BME280;47633;51.494;5.386;2023-04-08T01:12:31;102169.25;;;18.81;42.20
61710;BME280;47633;51.494;5.386;2023-04-08T01:15:04;102170.13;;;18.82;42.23
61710;BME280;47633;51.494;5.386;2023-04-08T01:17:31;102163.22;;;18.79;42.33
61710;BME280;47633;51.494;5.386;2023-04-08T01:19:59;102160.56;;;18.79;42.26
61710;BME280;47633;51.494;5.386;2023-04-08T01:22:33;102172.84;;;18.80;42.21
61710;BME280;47633;51.494;5.386;2023-04-08T01:25:07;102172.16;;;18.77;42.26
61710;BME280;47633;51.494;5.386;2023-04-08T01:27:34;102174.72;;;18.78;42.34
61710;BME280;47633;51.494;5.386;2023-04-08T01:30:03;102170.41;;;18.77;42.30
61710;BME280;47633;51.494;5.386;2023-04-08T01:32:29;102167.00;;;18.75;42.35
61710;BME280;47633;51.494;5.386;2023-04-08T01:34:57;102172.28;;;18.75;42.31
61710;BME280;47633;51.494;5.386;2023-04-08T01:37:27;102184.53;;;18.76;42.28
61710;BME280;47633;51.494;5.386;2023-04-08T01:39:54;102188.13;;;18.75;42.35
61710;BME280;47633;51.494;5.386;2023-04-08T01:42:21;102175.00;;;18.74;42.46
61710;BME280;47633;51.494;5.386;2023-04-08T01:44:49;102175.88;;;18.74;42.25
61710;BME280;47633;51.494;5.386;2023-04-08T01:47:15;102178.63;;;18.73;42.16
61710;BME280;47633;51.494;5.386;2023-04-08T01:49:41;102176.91;;;18.72;42.29
61710;BME280;47633;51.494;5.386;2023-04-08T01:52:08;102180.19;;;18.75;42.28
61710;BME280;47633;51.494;5.386;2023-04-08T01:54:34;102186.44;;;18.74;42.29
61710;BME280;47633;51.494;5.386;2023-04-08T01:57:01;102187.38;;;18.73;42.37
61710;BME280;47633;51.494;5.386;2023-04-08T01:59:30;102187.38;;;18.73;42.40
61710;BME280;47633;51.494;5.386;2023-04-08T02:02:01;102183.13;;;18.71;42.30
61710;BME280;47633;51.494;5.386;2023-04-08T02:04:26;102181.44;;;18.70;42.36
61710;BME280;47633;51.494;5.386;2023-04-08T02:06:51;102182.28;;;18.70;42.35
61710;BME280;47633;51.494;5.386;2023-04-08T02:09:16;102180.56;;;18.69;42.42
61710;BME280;47633;51.494;5.386;2023-04-08T02:11:42;102184.09;;;18.70;42.32
61710;BME280;47633;51.494;5.386;2023-04-08T02:14:07;102180.56;;;18.69;42.28
61710;BME280;47633;51.494;5.386;2023-04-08T02:16:39;102175.50;;;18.66;42.30
61710;BME280;47633;51.494;5.386;2023-04-08T02:19:28;102181.53;;;18.68;42.47
61710;BME280;47633;51.494;5.386;2023-04-08T02:22:01;102181.63;;;18.66;42.37
61710;BME280;47633;51.494;5.386;2023-04-08T02:24:30;102186.16;;;18.64;42.37
61710;BME280;47633;51.494;5.386;2023-04-08T02:26:57;102185.31;;;18.64;42.37
61710;BME280;47633;51.494;5.386;2023-04-08T02:29:23;102189.66;;;18.65;42.42
61710;BME280;47633;51.494;5.386;2023-04-08T02:31:49;102187.84;;;18.65;42.31
61710;BME280;47633;51.494;5.386;2023-04-08T02:34:16;102186.16;;;18.64;42.51
61710;BME280;47633;51.494;5.386;2023-04-08T02:36:42;102189.75;;;18.63;42.61
61710;BME280;47633;51.494;5.386;2023-04-08T02:39:10;102190.59;;;18.64;42.35
61710;BME280;47633;51.494;5.386;2023-04-08T02:41:35;102186.25;;;18.63;42.50
61710;BME280;47633;51.494;5.386;2023-04-08T02:44:00;102194.09;;;18.64;42.57
61710;BME280;47633;51.494;5.386;2023-04-08T02:46:26;102196.72;;;18.64;42.55
61710;BME280;47633;51.494;5.386;2023-04-08T02:48:52;102193.41;;;18.61;42.76
61710;BME280;47633;51.494;5.386;2023-04-08T02:51:17;102197.56;;;18.65;42.59
61710;BME280;47633;51.494;5.386;2023-04-08T02:53:42;102195.13;;;18.62;42.49
61710;BME280;47633;51.494;5.386;2023-04-08T02:56:11;102200.31;;;18.63;42.19
61710;BME280;47633;51.494;5.386;2023-04-08T02:58:36;102203.78;;;18.64;42.51
61710;BME280;47633;51.494;5.386;2023-04-08T03:01:02;102193.41;;;18.61;42.33
61710;BME280;47633;51.494;5.386;2023-04-08T03:03:27;102205.69;;;18.62;42.62
61710;BME280;47633;51.494;5.386;2023-04-08T03:05:57;102203.97;;;18.61;42.39
61710;BME280;47633;51.494;5.386;2023-04-08T03:08:22;102201.34;;;18.61;42.49
61710;BME280;47633;51.494;5.386;2023-04-08T03:10:48;102206.63;;;18.61;42.60
61710;BME280;47633;51.494;5.386;2023-04-08T03:13:14;102201.44;;;18.59;42.34
61710;BME280;47633;51.494;5.386;2023-04-08T03:15:40;102203.13;;;18.60;42.61
61710;BME280;47633;51.494;5.386;2023-04-08T03:18:05;102202.28;;;18.60;42.44
61710;BME280;47633;51.494;5.386;2023-04-08T03:20:31;102207.56;;;18.60;42.46
61710;BME280;47633;51.494;5.386;2023-04-08T03:22:56;102205.78;;;18.60;42.50
61710;BME280;47633;51.494;5.386;2023-04-08T03:25:21;102205.78;;;18.60;42.67
61710;BME280;47633;51.494;5.386;2023-04-08T03:27:46;102203.31;;;18.57;42.45
61710;BME280;47633;51.494;5.386;2023-04-08T03:30:12;102207.56;;;18.60;42.37
61710;BME280;47633;51.494;5.386;2023-04-08T03:32:37;102198.97;;;18.56;42.46
61710;BME280;47633;51.494;5.386;2023-04-08T03:35:04;102206.81;;;18.58;42.56
61710;BME280;47633;51.494;5.386;2023-04-08T03:37:29;102212.25;;;18.55;42.43
61710;BME280;47633;51.494;5.386;2023-04-08T03:39:55;102208.69;;;18.56;42.46
61710;BME280;47633;51.494;5.386;2023-04-08T03:42:20;102211.34;;;18.56;42.59
61710;BME280;47633;51.494;5.386;2023-04-08T03:44:45;102210.50;;;18.55;42.40
61710;BME280;47633;51.494;5.386;2023-04-08T03:47:10;102211.44;;;18.54;42.63
61710;BME280;47633;51.494;5.386;2023-04-08T03:49:36;102207.75;;;18.57;42.58
61710;BME280;47633;51.494;5.386;2023-04-08T03:52:01;102201.81;;;18.53;42.48
61710;BME280;47633;51.494;5.386;2023-04-08T03:54:26;102204.44;;;18.53;42.62
61710;BME280;47633;51.494;5.386;2023-04-08T03:56:52;102216.72;;;18.54;42.63
61710;BME280;47633;51.494;5.386;2023-04-08T03:59:17;102212.44;;;18.52;42.51
61710;BME280;47633;51.494;5.386;2023-04-08T04:01:42;102220.28;;;18.53;42.58
61710;BME280;47633;51.494;5.386;2023-04-08T04:04:07;102213.41;;;18.51;42.77
61710;BME280;47633;51.494;5.386;2023-04-08T04:06:33;102218.69;;;18.51;42.54
61710;BME280;47633;51.494;5.386;2023-04-08T04:08:58;102212.66;;;18.48;42.51
61710;BME280;47633;51.494;5.386;2023-04-08T04:11:23;102213.31;;;18.52;42.62
61710;BME280;47633;51.494;5.386;2023-04-08T04:13:49;102211.81;;;18.48;42.77
61710;BME280;47633;51.494;5.386;2023-04-08T04:16:14;102210.88;;;18.49;42.69
61710;BME280;47633;51.494;5.386;2023-04-08T04:18:39;102210.97;;;18.47;42.86
61710;BME280;47633;51.494;5.386;2023-04-08T04:21:05;102221.34;;;18.51;42.63
61710;BME280;47633;51.494;5.386;2023-04-08T04:23:31;102229.25;;;18.51;42.83
61710;BME280;47633;51.494;5.386;2023-04-08T04:25:56;102227.63;;;18.48;42.56
61710;BME280;47633;51.494;5.386;2023-04-08T04:28:21;102234.53;;;18.51;42.74
61710;BME280;47633;51.494;5.386;2023-04-08T04:30:47;102229.34;;;18.49;42.61
61710;BME280;47633;51.494;5.386;2023-04-08T04:33:12;102231.16;;;18.48;42.77
61710;BME280;47633;51.494;5.386;2023-04-08T04:35:38;102236.34;;;18.50;42.61
61710;BME280;47633;51.494;5.386;2023-04-08T04:38:04;102233.69;;;18.50;42.74
61710;BME280;47633;51.494;5.386;2023-04-08T04:40:34;102238.19;;;18.48;42.81
61710;BME280;47633;51.494;5.386;2023-04-08T04:43:00;102240.00;;;18.47;42.77
61710;BME280;47633;51.494;5.386;2023-04-08T04:45:25;102245.38;;;18.46;42.75
61710;BME280;47633;51.494;5.386;2023-04-08T04:47:50;102245.19;;;18.49;42.70
61710;BME280;47633;51.494;5.386;2023-04-08T04:50:16;102246.22;;;18.46;42.72
61710;BME280;47633;51.494;5.386;2023-04-08T04:52:41;102244.81;;;18.41;42.86
61710;BME280;47633;51.494;5.386;2023-04-08T04:55:07;102248.19;;;18.43;42.85
61710;BME280;47633;51.494;5.386;2023-04-08T04:57:32;102244.03;;;18.39;42.70
61710;BME280;47633;51.494;5.386;2023-04-08T04:59:57;102261.22;;;18.46;42.64
61710;BME280;47633;51.494;5.386;2023-04-08T05:02:22;102258.75;;;18.43;42.63
61710;BME280;47633;51.494;5.386;2023-04-08T05:04:48;102265.75;;;18.44;42.42
61710;BME280;47633;51.494;5.386;2023-04-08T05:07:13;102263.19;;;18.42;42.64
61710;BME280;47633;51.494;5.386;2023-04-08T05:09:38;102264.88;;;18.43;42.81
61710;BME280;47633;51.494;5.386;2023-04-08T05:12:04;102260.56;;;18.42;42.68
61710;BME280;47633;51.494;5.386;2023-04-08T05:14:29;102272.59;;;18.46;42.63
61710;BME280;47633;51.494;5.386;2023-04-08T05:16:55;102262.91;;;18.47;42.68
61710;BME280;47633;51.494;5.386;2023-04-08T05:19:20;102274.13;;;18.51;42.73
61710;BME280;47633;51.494;5.386;2023-04-08T05:21:45;102268.84;;;18.51;42.81
61710;BME280;47633;51.494;5.386;2023-04-08T05:24:11;102275.63;;;18.55;42.58
61710;BME280;47633;51.494;5.386;2023-04-08T05:26:36;102272.81;;;18.58;42.89
61710;BME280;47633;51.494;5.386;2023-04-08T05:29:02;102277.91;;;18.61;42.89
61710;BME280;47633;51.494;5.386;2023-04-08T05:31:27;102278.69;;;18.63;42.69
61710;BME280;47633;51.494;5.386;2023-04-08T05:33:52;102281.22;;;18.64;42.87
61710;BME280;47633;51.494;5.386;2023-04-08T05:36:18;102287.91;;;18.70;42.96
61710;BME280;47633;51.494;5.386;2023-04-08T05:38:43;102279.81;;;18.73;42.95
61710;BME280;47633;51.494;5.386;2023-04-08T05:41:09;102284.06;;;18.76;42.73
61710;BME280;47633;51.494;5.386;2023-04-08T05:43:34;102280.47;;;18.77;42.66
61710;BME280;47633;51.494;5.386;2023-04-08T05:46:05;102282.06;;;18.79;42.74
61710;BME280;47633;51.494;5.386;2023-04-08T05:48:31;102288.88;;;18.83;42.81
61710;BME280;47633;51.494;5.386;2023-04-08T05:50:56;102292.19;;;18.87;42.62
61710;BME280;47633;51.494;5.386;2023-04-08T05:53:21;102294.75;;;18.89;42.61
61710;BME280;47633;51.494;5.386;2023-04-08T05:55:48;102290.41;;;18.88;42.72
61710;BME280;47633;51.494;5.386;2023-04-08T05:58:13;102303.41;;;18.91;42.57
61710;BME280;47633;51.494;5.386;2023-04-08T06:00:39;102300.78;;;18.91;42.73
61710;BME280;47633;51.494;5.386;2023-04-08T06:03:04;102302.41;;;18.93;42.56
61710;BME280;47633;51.494;5.386;2023-04-08T06:05:30;102305.88;;;18.94;42.51
61710;BME280;47633;51.494;5.386;2023-04-08T06:07:55;102306.81;;;18.93;42.41
61710;BME280;47633;51.494;5.386;2023-04-08T06:10:20;102312.78;;;18.96;42.54
61710;BME280;47633;51.494;5.386;2023-04-08T06:12:46;102309.25;;;18.96;42.43
61710;BME280;47633;51.494;5.386;2023-04-08T06:15:11;102310.13;;;18.96;42.50
61710;BME280;47633;51.494;5.386;2023-04-08T06:17:37;102319.09;;;18.94;42.38
61710;BME280;47633;51.494;5.386;2023-04-08T06:20:03;102324.19;;;18.97;42.34
61710;BME280;47633;51.494;5.386;2023-04-08T06:22:28;102320.88;;;18.93;42.38
61710;BME280;47633;51.494;5.386;2023-04-08T06:24:54;102325.22;;;18.94;42.30
61710;BME280;47633;51.494;5.386;2023-04-08T06:27:19;102329.66;;;18.94;42.31
61710;BME280;47633;51.494;5.386;2023-04-08T06:29:45;102331.34;;;18.95;42.34
61710;BME280;47633;51.494;5.386;2023-04-08T06:32:11;102335.03;;;18.92;42.40
61710;BME280;47633;51.494;5.386;2023-04-08T06:34:37;102335.88;;;18.93;42.46
61710;BME280;47633;51.494;5.386;2023-04-08T06:37:02;102344.66;;;18.93;42.35
61710;BME280;47633;51.494;5.386;2023-04-08T06:39:27;102345.50;;;18.94;42.43
61710;BME280;47633;51.494;5.386;2023-04-08T06:41:53;102342.03;;;18.93;42.56
61710;BME280;47633;51.494;5.386;2023-04-08T06:44:18;102349.84;;;18.95;42.57
61710;BME280;47633;51.494;5.386;2023-04-08T06:46:44;102348.06;;;18.95;42.41
61710;BME280;47633;51.494;5.386;2023-04-08T06:49:09;102349.84;;;18.95;42.64
61710;BME280;47633;51.494;5.386;2023-04-08T06:51:34;102357.69;;;18.96;43.23
61710;BME280;47633;51.494;5.386;2023-04-08T06:54:00;102347.22;;;18.95;42.92
61710;BME280;47633;51.494;5.386;2023-04-08T06:56:26;102354.09;;;18.97;43.12
61710;BME280;47633;51.494;5.386;2023-04-08T06:58:51;102357.59;;;18.98;42.76
61710;BME280;47633;51.494;5.386;2023-04-08T07:01:17;102370.63;;;19.01;42.90
61710;BME280;47633;51.494;5.386;2023-04-08T07:03:42;102368.91;;;19.00;42.76
61710;BME280;47633;51.494;5.386;2023-04-08T07:06:08;102362.78;;;18.99;42.96
61710;BME280;47633;51.494;5.386;2023-04-08T07:08:33;102368.91;;;19.00;43.08
61710;BME280;47633;51.494;5.386;2023-04-08T07:10:59;102370.50;;;19.02;43.32
61710;BME280;47633;51.494;5.386;2023-04-08T07:13:24;102374.94;;;19.02;43.30
61710;BME280;47633;51.494;5.386;2023-04-08T07:15:50;102371.56;;;19.00;43.34
61710;BME280;47633;51.494;5.386;2023-04-08T07:18:15;102374.00;;;19.03;43.70
61710;BME280;47633;51.494;5.386;2023-04-08T07:20:41;102390.69;;;19.03;43.54
61710;BME280;47633;51.494;5.386;2023-04-08T07:23:06;102385.50;;;19.02;43.53
61710;BME280;47633;51.494;5.386;2023-04-08T07:25:32;102392.41;;;19.05;43.54
61710;BME280;47633;51.494;5.386;2023-04-08T07:27:58;102388.91;;;19.04;43.57
61710;BME280;47633;51.494;5.386;2023-04-08T07:30:24;102398.91;;;19.13;43.43
61710;BME280;47633;51.494;5.386;2023-04-08T07:32:49;102398.81;;;19.15;43.38
61710;BME280;47633;51.494;5.386;2023-04-08T07:35:14;102395.34;;;19.14;43.34
61710;BME280;47633;51.494;5.386;2023-04-08T07:37:47;102397.78;;;19.17;43.30
61710;BME280;47633;51.494;5.386;2023-04-08T07:40:13;102402.16;;;19.18;43.17
61710;BME280;47633;51.494;5.386;2023-04-08T07:42:38;102402.91;;;19.20;43.36
61710;BME280;47633;51.494;5.386;2023-04-08T07:45:04;102407.31;;;19.20;43.27
61710;BME280;47633;51.494;5.386;2023-04-08T07:47:29;102404.66;;;19.20;43.26
61710;BME280;47633;51.494;5.386;2023-04-08T07:49:55;102404.66;;;19.20;43.26
61710;BME280;47633;51.494;5.386;2023-04-08T07:52:20;102405.53;;;19.20;43.25
61710;BME280;47633;51.494;5.386;2023-04-08T07:54:45;102406.47;;;19.19;43.19
61710;BME280;47633;51.494;5.386;2023-04-08T07:57:11;102399.59;;;19.17;43.05
61710;BME280;47633;51.494;5.386;2023-04-08T07:59:36;102407.63;;;19.15;43.07
61710;BME280;47633;51.494;5.386;2023-04-08T08:02:02;102406.75;;;19.15;42.87
61710;BME280;47633;51.494;5.386;2023-04-08T08:04:27;102421.66;;;19.16;42.98
61710;BME280;47633;51.494;5.386;2023-04-08T08:06:52;102421.75;;;19.14;43.19
61710;BME280;47633;51.494;5.386;2023-04-08T08:09:17;102421.84;;;19.13;42.89
61710;BME280;47633;51.494;5.386;2023-04-08T08:11:43;102420.16;;;19.12;43.02
61710;BME280;47633;51.494;5.386;2023-04-08T08:14:08;102427.16;;;19.13;42.86
61710;BME280;47633;51.494;5.386;2023-04-08T08:16:35;102435.81;;;19.15;43.13
61710;BME280;47633;51.494;5.386;2023-04-08T08:19:02;102436.00;;;19.12;43.14
61710;BME280;47633;51.494;5.386;2023-04-08T08:21:30;102431.59;;;19.12;42.92
61710;BME280;47633;51.494;5.386;2023-04-08T08:23:55;102435.16;;;19.11;42.88
61710;BME280;47633;51.494;5.386;2023-04-08T08:26:20;102430.81;;;19.10;42.80
61710;BME280;47633;51.494;5.386;2023-04-08T08:28:46;102442.25;;;19.11;42.61
61710;BME280;47633;51.494;5.386;2023-04-08T08:31:11;102440.53;;;19.10;42.66
61710;BME280;47633;51.494;5.386;2023-04-08T08:33:38;102438.81;;;19.09;42.76
61710;BME280;47633;51.494;5.386;2023-04-08T08:36:03;102440.53;;;19.10;42.80
61710;BME280;47633;51.494;5.386;2023-04-08T08:38:29;102452.13;;;19.07;42.68
61710;BME280;47633;51.494;5.386;2023-04-08T08:40:56;102445.06;;;19.08;42.78
61710;BME280;47633;51.494;5.386;2023-04-08T08:43:23;102452.13;;;19.07;42.89
61710;BME280;47633;51.494;5.386;2023-04-08T08:45:48;102449.50;;;19.07;42.56
61710;BME280;47633;51.494;5.386;2023-04-08T08:48:14;102451.28;;;19.07;42.66
61710;BME280;47633;51.494;5.386;2023-04-08T08:50:39;102456.56;;;19.07;42.79
61710;BME280;47633;51.494;5.386;2023-04-08T08:53:04;102449.41;;;19.09;42.70
61710;BME280;47633;51.494;5.386;2023-04-08T08:55:31;102452.91;;;19.09;42.55
61710;BME280;47633;51.494;5.386;2023-04-08T08:57:58;102460.06;;;19.07;42.76
61710;BME280;47633;51.494;5.386;2023-04-08T09:03:13;102462.78;;;19.06;42.72
61710;BME280;47633;51.494;5.386;2023-04-08T09:05:50;102465.25;;;19.09;42.68
61710;BME280;47633;51.494;5.386;2023-04-08T09:08:34;102457.59;;;19.04;42.87
61710;BME280;47633;51.494;5.386;2023-04-08T09:11:13;102466.31;;;19.06;42.61
61710;BME280;47633;51.494;5.386;2023-04-08T09:13:39;102469.69;;;19.08;42.50
61710;BME280;47633;51.494;5.386;2023-04-08T09:16:06;102476.69;;;19.09;42.64
61710;BME280;47633;51.494;5.386;2023-04-08T09:18:33;102471.41;;;19.09;42.56
61710;BME280;47633;51.494;5.386;2023-04-08T09:20:59;102478.88;;;19.17;42.53
61710;BME280;47633;51.494;5.386;2023-04-08T09:26:12;102481.13;;;19.23;42.48
61710;BME280;47633;51.494;5.386;2023-04-08T09:28:39;102482.38;;;19.17;42.58
61710;BME280;47633;51.494;5.386;2023-04-08T09:31:22;102486.03;;;19.15;42.67
61710;BME280;47633;51.494;5.386;2023-04-08T09:33:49;102484.25;;;19.15;42.45
61710;BME280;47633;51.494;5.386;2023-04-08T09:36:15;102480.75;;;19.15;42.65
61710;BME280;47633;51.494;5.386;2023-04-08T09:38:42;102488.66;;;19.15;42.65
61710;BME280;47633;51.494;5.386;2023-04-08T09:41:07;102480.00;;;19.13;42.73
61710;BME280;47633;51.494;5.386;2023-04-08T09:43:41;102486.91;;;19.15;43.13
61710;BME280;47633;51.494;5.386;2023-04-08T09:46:07;102491.03;;;19.19;42.98
61710;BME280;47633;51.494;5.386;2023-04-08T09:48:39;102490.94;;;19.21;42.81
61710;BME280;47633;51.494;5.386;2023-04-08T09:51:07;102493.69;;;19.19;42.99
61710;BME280;47633;51.494;5.386;2023-04-08T09:53:37;102493.03;;;19.16;42.98
61710;BME280;47633;51.494;5.386;2023-04-08T09:56:10;102500.03;;;19.17;43.13
61710;BME280;47633;51.494;5.386;2023-04-08T09:58:51;102498.22;;;19.17;43.14
61710;BME280;47633;51.494;5.386;2023-04-08T10:01:25;102498.22;;;19.17;42.98
61710;BME280;47633;51.494;5.386;2023-04-08T10:03:54;102492.84;;;19.19;42.97
61710;BME280;47633;51.494;5.386;2023-04-08T10:06:21;102487.66;;;19.17;42.90
61710;BME280;47633;51.494;5.386;2023-04-08T10:08:52;102495.59;;;19.17;43.07
61710;BME280;47633;51.494;5.386;2023-04-08T10:11:17;102497.84;;;19.24;43.16
61710;BME280;47633;51.494;5.386;2023-04-08T10:13:43;102496.53;;;19.31;43.02
61710;BME280;47633;51.494;5.386;2023-04-08T10:16:24;102502.28;;;19.37;43.03
61710;BME280;47633;51.494;5.386;2023-04-08T10:18:52;102499.47;;;19.40;42.64
61710;BME280;47633;51.494;5.386;2023-04-08T10:21:41;102505.72;;;19.39;43.06
61710;BME280;47633;51.494;5.386;2023-04-08T10:24:12;102506.38;;;19.43;42.78
61710;BME280;47633;51.494;5.386;2023-04-08T10:26:41;102504.84;;;19.39;43.06
61710;BME280;47633;51.494;5.386;2023-04-08T10:31:49;102501.28;;;19.40;42.97
61710;BME280;47633;51.494;5.386;2023-04-08T10:34:16;102490.22;;;19.33;43.11
61710;BME280;47633;51.494;5.386;2023-04-08T10:36:42;102485.78;;;19.34;43.10
61710;BME280;47633;51.494;5.386;2023-04-08T10:39:08;102495.97;;;19.40;42.93
61710;BME280;47633;51.494;5.386;2023-04-08T10:41:33;102484.56;;;19.39;43.11
61710;BME280;47633;51.494;5.386;2023-04-08T10:44:02;102483.03;;;19.35;42.95
61710;BME280;47633;51.494;5.386;2023-04-08T10:46:27;102496.63;;;19.44;42.91
61710;BME280;47633;51.494;5.386;2023-04-08T10:48:59;102495.88;;;19.42;42.74
61710;BME280;47633;51.494;5.386;2023-04-08T10:51:31;102495.69;;;19.45;42.97
61710;BME280;47633;51.494;5.386;2023-04-08T10:54:08;102489.56;;;19.44;42.97
61710;BME280;47633;51.494;5.386;2023-04-08T10:56:34;102486.94;;;19.44;43.09
61710;BME280;47633;51.494;5.386;2023-04-08T10:59:00;102476.81;;;19.51;42.95
61710;BME280;47633;51.494;5.386;2023-04-08T11:01:25;102480.97;;;19.55;42.89
61710;BME280;47633;51.494;5.386;2023-04-08T11:03:51;102481.06;;;19.53;43.44
61710;BME280;47633;51.494;5.386;2023-04-08T11:06:17;102477.94;;;19.47;43.09
61710;BME280;47633;51.494;5.386;2023-04-08T11:08:43;102480.69;;;19.45;43.44
61710;BME280;47633;51.494;5.386;2023-04-08T11:11:09;102482.47;;;19.45;43.39
61710;BME280;47633;51.494;5.386;2023-04-08T11:13:36;102482.47;;;19.45;43.52
61710;BME280;47633;51.494;5.386;2023-04-08T11:16:03;102473.72;;;19.44;43.52
61710;BME280;47633;51.494;5.386;2023-04-08T11:18:30;102471.81;;;19.46;43.30
61710;BME280;47633;51.494;5.386;2023-04-08T11:20:56;102468.44;;;19.44;43.50
61710;BME280;47633;51.494;5.386;2023-04-08T11:23:23;102465.69;;;19.46;43.53
61710;BME280;47633;51.494;5.386;2023-04-08T11:25:49;102459.34;;;19.48;43.34
61710;BME280;47633;51.494;5.386;2023-04-08T11:28:16;102464.53;;;19.50;43.57
61710;BME280;47633;51.494;5.386;2023-04-08T11:30:42;102461.06;;;19.49;43.31
61710;BME280;47633;51.494;5.386;2023-04-08T11:33:08;102463.69;;;19.49;43.71
61710;BME280;47633;51.494;5.386;2023-04-08T11:35:33;102462.94;;;19.47;43.57
61710;BME280;47633;51.494;5.386;2023-04-08T11:38:03;102462.16;;;19.45;43.54
61710;BME280;47633;51.494;5.386;2023-04-08T11:40:28;102467.28;;;19.48;43.45
61710;BME280;47633;51.494;5.386;2023-04-08T11:42:54;102461.06;;;19.49;43.40
61710;BME280;47633;51.494;5.386;2023-04-08T11:45:20;102460.31;;;19.47;43.20
61710;BME280;47633;51.494;5.386;2023-04-08T11:47:46;102463.69;;;19.49;43.16
61710;BME280;47633;51.494;5.386;2023-04-08T11:50:21;102465.78;;;19.44;43.17
61710;BME280;47633;51.494;5.386;2023-04-08T11:52:48;102468.97;;;19.49;43.26
61710;BME280;47633;51.494;5.386;2023-04-08T11:55:27;102462.06;;;19.47;43.50
61710;BME280;47633;51.494;5.386;2023-04-08T11:57:53;102465.69;;;19.46;43.36
61710;BME280;47633;51.494;5.386;2023-04-08T12:00:20;102466.53;;;19.46;43.30
61710;BME280;47633;51.494;5.386;2023-04-08T12:02:46;102470.47;;;19.53;43.10
61710;BME280;47633;51.494;5.386;2023-04-08T12:05:12;102465.19;;;19.53;42.96
61710;BME280;47633;51.494;5.386;2023-04-08T12:07:38;102463.22;;;19.57;43.00
61710;BME280;47633;51.494;5.386;2023-04-08T12:10:04;102463.13;;;19.58;42.78
61710;BME280;47633;51.494;5.386;2023-04-08T12:12:29;102466.53;;;19.61;42.67
61710;BME280;47633;51.494;5.386;2023-04-08T12:14:55;102470.00;;;19.61;42.65
61710;BME280;47633;51.494;5.386;2023-04-08T12:17:24;102462.16;;;19.60;42.91
61710;BME280;47633;51.494;5.386;2023-04-08T12:19:50;102463.69;;;19.64;43.18
61710;BME280;47633;51.494;5.386;2023-04-08T12:22:15;102468.97;;;19.64;42.99
61710;BME280;47633;51.494;5.386;2023-04-08T12:24:41;102458.50;;;19.62;43.14
61710;BME280;47633;51.494;5.386;2023-04-08T12:27:06;102458.59;;;19.61;43.20
61710;BME280;47633;51.494;5.386;2023-04-08T12:29:31;102454.03;;;19.63;43.63
61710;BME280;47633;51.494;5.386;2023-04-08T12:31:57;102459.25;;;19.64;43.39
61710;BME280;47633;51.494;5.386;2023-04-08T12:34:22;102453.94;;;19.64;43.22
61710;BME280;47633;51.494;5.386;2023-04-08T12:36:48;102459.91;;;19.68;43.41
61710;BME280;47633;51.494;5.386;2023-04-08T12:39:14;102459.16;;;19.66;43.28
61710;BME280;47633;51.494;5.386;2023-04-08T12:41:39;102455.56;;;19.67;43.48
61710;BME280;47633;51.494;5.386;2023-04-08T12:44:05;102450.94;;;19.70;43.52
61710;BME280;47633;51.494;5.386;2023-04-08T12:46:31;102456.22;;;19.70;43.41
61710;BME280;47633;51.494;5.386;2023-04-08T12:48:56;102450.81;;;19.72;43.62
61710;BME280;47633;51.494;5.386;2023-04-08T12:51:21;102453.47;;;19.72;43.48
61710;BME280;47633;51.494;5.386;2023-04-08T12:53:47;102450.72;;;19.73;43.41
61710;BME280;47633;51.494;5.386;2023-04-08T12:56:12;102440.25;;;19.72;43.33
61710;BME280;47633;51.494;5.386;2023-04-08T12:58:38;102436.56;;;19.74;43.64